Svinoy — V7RM5 — position and weather

sailwx.info

Track history (hours):
 
Tides and Currents Weather Stations Pressure Air Temp Water Temp Dewpoint Dewpoint Depression Visibility Wind Speed Wind Dir Waves Ship Positions

Svinoy

Last reported at 2016-May-26 07:20 UTC. Time now 2016-May-26 08:52 UTC.
Position N 29°58' W 090°18'.

Length 190 m; draft 6.5 m.

Type: Cargo ship. MMSI: 538003541.

Date/timePositionNaut miles runAvg speedWind from/ knotsBaromVisibWave heightAir tempDewpointWater temp
2016-May-26 07:20N 29°58' W 090°18'0 0.0
2016-May-26 06:32N 29°58' W 090°18'0 0.0
2016-May-26 04:20N 29°58' W 090°18'0 0.0
2016-May-26 03:32N 29°58' W 090°18'0 0.0
2016-May-26 02:26N 29°58' W 090°18'0 0.0
2016-May-26 01:29N 29°58' W 090°18'0 0.0
2016-May-26 00:29N 29°58' W 090°18'0 0.0
2016-May-25 23:32N 29°58' W 090°18'0 0.0
2016-May-25 22:29N 29°58' W 090°18'0 0.0
2016-May-25 21:32N 29°58' W 090°18'0 0.0
2016-May-25 20:23N 29°58' W 090°18'0 0.0
2016-May-25 19:29N 29°58' W 090°18'0 0.0
2016-May-25 18:32N 29°58' W 090°18'0 0.0
2016-May-25 17:29N 29°58' W 090°18'0 0.0
2016-May-25 16:26N 29°58' W 090°18'0 0.0
2016-May-25 15:29N 29°58' W 090°18'0 0.0
2016-May-25 14:32N 29°58' W 090°18'0 0.0
2016-May-25 13:23N 29°58' W 090°18'0 0.0
2016-May-25 12:23N 29°58' W 090°18'0 0.0
2016-May-25 11:29N 29°58' W 090°18'0 0.0
2016-May-25 10:32N 29°58' W 090°18'0 0.0
2016-May-25 09:32N 29°58' W 090°18'0 0.0
2016-May-25 08:32N 29°58' W 090°18'0 0.0
2016-May-25 07:23N 29°58' W 090°18'0 0.0
2016-May-25 06:32N 29°58' W 090°18'0 0.0
2016-May-25 04:26N 29°58' W 090°18'0 0.0
2016-May-25 03:32N 29°58' W 090°18'0 0.0
2016-May-25 02:32N 29°58' W 090°18'0 0.0
2016-May-25 01:32N 29°58' W 090°18'0 0.0
2016-May-25 00:29N 29°58' W 090°18'0 0.0
2016-May-24 23:29N 29°58' W 090°18'0 0.0
2016-May-24 22:32N 29°58' W 090°18'0 0.0
2016-May-24 21:32N 29°58' W 090°18'0 0.0
2016-May-24 20:29N 29°58' W 090°18'0 0.0
2016-May-24 19:29N 29°58' W 090°18'0 0.0
2016-May-24 18:29N 29°58' W 090°18'0 0.0
2016-May-24 17:32N 29°58' W 090°18'0 0.0
2016-May-24 16:32N 29°58' W 090°18'0 0.0
2016-May-24 15:32N 29°58' W 090°18'0 0.0
2016-May-24 14:32N 29°58' W 090°18'0 0.0
2016-May-24 13:17N 29°58' W 090°18'0 0.0
2016-May-24 12:29N 29°58' W 090°18'0 0.0
2016-May-24 11:32N 29°58' W 090°18'0 0.0
2016-May-24 10:14N 29°58' W 090°18'0 0.0
2016-May-24 08:05N 29°58' W 090°18'0 0.0
2016-May-24 07:11N 29°58' W 090°18'0 0.0
2016-May-24 05:29N 29°58' W 090°18'0 0.0
2016-May-24 04:14N 29°58' W 090°18'0 0.0
2016-May-24 03:32N 29°58' W 090°18'0 0.0
2016-May-24 02:26N 29°58' W 090°18'0 0.0
2016-May-24 01:32N 29°58' W 090°18'0 0.0
2016-May-24 00:23N 29°58' W 090°18'0 0.0
2016-May-23 23:29N 29°58' W 090°18'0 0.0
2016-May-23 21:26N 29°58' W 090°18'0 0.0
2016-May-23 20:23N 29°58' W 090°18'0 0.0
2016-May-23 19:32N 29°58' W 090°18'0 0.0
2016-May-23 14:17N 29°58' W 090°18'0 0.0
2016-May-23 13:17N 29°58' W 090°18'0 0.0
2016-May-23 12:11N 29°58' W 090°18'0 0.0
2016-May-23 11:26N 29°58' W 090°18'0 0.0
2016-May-23 10:32N 29°58' W 090°18'0 0.0
2016-May-23 08:32N 29°58' W 090°18'0 0.0
2016-May-23 07:32N 29°58' W 090°18'0 0.0
2016-May-23 06:32N 29°58' W 090°18'  
2016-May-19 10:04N 29°58' W 090°16'3 6.7
2016-May-19 09:33N 29°56' W 090°13'5 5.0
2016-May-19 08:34N 29°55' W 090°07'5 5.4
2016-May-19 07:33N 29°57' W 090°02'6 5.6
2016-May-19 06:34N 29°55' W 089°56'3 3.4
2016-May-19 05:34N 29°53' W 089°58'7 6.6
2016-May-19 04:34N 29°47' W 090°01'  
Track history (hours):
 
Tides and Currents Weather Stations Pressure Air Temp Water Temp Dewpoint Dewpoint Depression Visibility Wind Speed Wind Dir Waves Ship Positions

Svinoy

Last reported at 2016-May-26 07:20 UTC. Time now 2016-May-26 08:52 UTC.
Position N 29°58' W 090°18'.

Length 190 m; draft 6.5 m.

Type: Cargo ship. MMSI: 538003541.

Date/timePositionNaut miles runAvg speedWind from/ knotsBaromVisibWave heightAir tempDewpointWater temp
2016-May-26 07:20N 29°58' W 090°18'0 0.0
2016-May-26 06:32N 29°58' W 090°18'0 0.0
2016-May-26 04:20N 29°58' W 090°18'0 0.0
2016-May-26 03:32N 29°58' W 090°18'0 0.0
2016-May-26 02:26N 29°58' W 090°18'0 0.0
2016-May-26 01:29N 29°58' W 090°18'0 0.0
2016-May-26 00:29N 29°58' W 090°18'0 0.0
2016-May-25 23:32N 29°58' W 090°18'0 0.0
2016-May-25 22:29N 29°58' W 090°18'0 0.0
2016-May-25 21:32N 29°58' W 090°18'0 0.0
2016-May-25 20:23N 29°58' W 090°18'0 0.0
2016-May-25 19:29N 29°58' W 090°18'0 0.0
2016-May-25 18:32N 29°58' W 090°18'0 0.0
2016-May-25 17:29N 29°58' W 090°18'0 0.0
2016-May-25 16:26N 29°58' W 090°18'0 0.0
2016-May-25 15:29N 29°58' W 090°18'0 0.0
2016-May-25 14:32N 29°58' W 090°18'0 0.0
2016-May-25 13:23N 29°58' W 090°18'0 0.0
2016-May-25 12:23N 29°58' W 090°18'0 0.0
2016-May-25 11:29N 29°58' W 090°18'0 0.0
2016-May-25 10:32N 29°58' W 090°18'0 0.0
2016-May-25 09:32N 29°58' W 090°18'0 0.0
2016-May-25 08:32N 29°58' W 090°18'0 0.0
2016-May-25 07:23N 29°58' W 090°18'0 0.0
2016-May-25 06:32N 29°58' W 090°18'0 0.0
2016-May-25 04:26N 29°58' W 090°18'0 0.0
2016-May-25 03:32N 29°58' W 090°18'0 0.0
2016-May-25 02:32N 29°58' W 090°18'0 0.0
2016-May-25 01:32N 29°58' W 090°18'0 0.0
2016-May-25 00:29N 29°58' W 090°18'0 0.0
2016-May-24 23:29N 29°58' W 090°18'0 0.0
2016-May-24 22:32N 29°58' W 090°18'0 0.0
2016-May-24 21:32N 29°58' W 090°18'0 0.0
2016-May-24 20:29N 29°58' W 090°18'0 0.0
2016-May-24 19:29N 29°58' W 090°18'0 0.0
2016-May-24 18:29N 29°58' W 090°18'0 0.0
2016-May-24 17:32N 29°58' W 090°18'0 0.0
2016-May-24 16:32N 29°58' W 090°18'0 0.0
2016-May-24 15:32N 29°58' W 090°18'0 0.0
2016-May-24 14:32N 29°58' W 090°18'0 0.0
2016-May-24 13:17N 29°58' W 090°18'0 0.0
2016-May-24 12:29N 29°58' W 090°18'0 0.0
2016-May-24 11:32N 29°58' W 090°18'0 0.0
2016-May-24 10:14N 29°58' W 090°18'0 0.0
2016-May-24 08:05N 29°58' W 090°18'0 0.0
2016-May-24 07:11N 29°58' W 090°18'0 0.0
2016-May-24 05:29N 29°58' W 090°18'0 0.0
2016-May-24 04:14N 29°58' W 090°18'0 0.0
2016-May-24 03:32N 29°58' W 090°18'0 0.0
2016-May-24 02:26N 29°58' W 090°18'0 0.0
2016-May-24 01:32N 29°58' W 090°18'0 0.0
2016-May-24 00:23N 29°58' W 090°18'0 0.0
2016-May-23 23:29N 29°58' W 090°18'0 0.0
2016-May-23 21:26N 29°58' W 090°18'0 0.0
2016-May-23 20:23N 29°58' W 090°18'0 0.0
2016-May-23 19:32N 29°58' W 090°18'0 0.0
2016-May-23 14:17N 29°58' W 090°18'0 0.0
2016-May-23 13:17N 29°58' W 090°18'0 0.0
2016-May-23 12:11N 29°58' W 090°18'0 0.0
2016-May-23 11:26N 29°58' W 090°18'0 0.0
2016-May-23 10:32N 29°58' W 090°18'0 0.0
2016-May-23 08:32N 29°58' W 090°18'0 0.0
2016-May-23 07:32N 29°58' W 090°18'0 0.0
2016-May-23 06:32N 29°58' W 090°18'  
2016-May-19 10:04N 29°58' W 090°16'3 6.7
2016-May-19 09:33N 29°56' W 090°13'5 5.0
2016-May-19 08:34N 29°55' W 090°07'5 5.4
2016-May-19 07:33N 29°57' W 090°02'6 5.6
2016-May-19 06:34N 29°55' W 089°56'3 3.4
2016-May-19 05:34N 29°53' W 089°58'7 6.6
2016-May-19 04:34N 29°47' W 090°01'  

Dump ship's entire track history